Airfield :
LOGIN :

Register | Disclaimer

   EN    FR    IT 

 










Legend :    VFR   Marginal VFR   IFR   Intensive IFR   Very Intensive IFR
Visi :
Ceiling :
>= 8 km
>= 3000ft
5 to 8 km
1000 to 3000 ft
1500m to 5 km
500 to 1000 ft
800 to 1500m
200 to 500 ft
< 800m
< 200 ft
Symbols :   Thunderstorms  Fog  Heavy snow  Heavy precipitations  Wind > 20 kt
SIGMETs :     Misc.  Thunderstorms  Icing  Turbulence  Mountain Waves  Volcanic Ashes






- Airport Elevation : 1900 ft
- IATA code : FEZ


GMFF - Fez Saiss

CURRENT METAR :
  • 051400Z 29005KT 230V340 CAVOK 35/13 Q1017 NOSIG

EXPIRED METARs :
  • 051330Z 33005KT 290V020 CAVOK 33/13 Q1017 NOSIG
  • 051300Z 31005KT 240V010 CAVOK 33/13 Q1017 NOSIG
  • 051230Z 32006KT 260V020 CAVOK 32/13 Q1018 NOSIG
  • 051200Z 36004KT 280V050 CAVOK 32/13 Q1018 NOSIG
  • 051130Z 33005KT 280V060 CAVOK 31/13 Q1018 NOSIG

TAF TAF GMFF
Valid from the 05 at 12:00 until the 06 at 18:00 UTC


051100Z 0512/0618 32008KT CAVOK
TEMPO 0515/0520 32012KT



MET'MAP, your aeronautical weather chart ! - Copyright ORBIFLY December 2007 - Disclaimer

ORBIFLY MET'MAP TEAM :

Programming & Development : Alexandra Zaïnal
Concept & original design : Baudouin d'Aumeries
Assistance for programming : Marc-Olivier Méhu
Technical & hardware support : Manuel Goepfert

Contact : metmap@orbifly.com




SOURCES & CREDITS :

   NOAA